Time;durP1;ratioP1;P1;durP2;ratioP2;P2;SDS_P1;SDS_P2;PMS_P1;PMS_P2;Temp;Humidity;BMP_temperature;BMP_pressure;BME280_temperature;BME280_humidity;BME280_pressure;Samples;Min_cycle;Max_cycle;Signal;HPM_P1;HPM_P2
2021/05/02 00:01:44;;;;;;;18.23;10.82;;;;;;;12.49;87.33;100111.14;1650130;87;21848;-81
2021/05/02 00:04:52;;;;;;;16.23;8.95;;;;;;;12.52;87.48;100112.66;1650284;87;21892;-81
2021/05/02 00:07:57;;;;;;;21.75;10.68;;;;;;;12.58;87.14;100119.27;1649920;85;21230;-81
2021/05/02 00:11:04;;;;;;;21.68;11.65;;;;;;;12.61;86.77;100113.37;1649456;87;21733;-81
2021/05/02 00:14:10;;;;;;;21.48;10.65;;;;;;;12.63;87.03;100108.03;1650160;85;21330;-81
2021/05/02 00:17:19;;;;;;;19.85;11.57;;;;;;;12.68;87.30;100108.29;1650170;85;21387;-81
2021/05/02 00:20:27;;;;;;;25.23;13.20;;;;;;;12.73;87.36;100100.32;1652553;86;21294;-81
2021/05/02 00:23:32;;;;;;;20.43;11.20;;;;;;;12.75;87.54;100100.11;1650054;85;21254;-81
2021/05/02 00:26:38;;;;;;;18.40;10.48;;;;;;;12.77;87.81;100097.52;1650041;87;21401;-81
2021/05/02 00:29:44;;;;;;;28.87;11.90;;;;;;;12.78;87.25;100091.50;1650267;87;21329;-81
2021/05/02 00:32:51;;;;;;;21.80;12.85;;;;;;;12.77;87.60;100080.20;1613148;87;21325;-81
2021/05/02 00:35:55;;;;;;;25.75;13.70;;;;;;;12.73;88.74;100077.52;1636215;87;21369;-81
2021/05/02 00:39:01;;;;;;;22.58;10.48;;;;;;;12.69;89.66;100084.44;1650143;85;21382;-81
2021/05/02 00:42:10;;;;;;;18.02;11.28;;;;;;;12.66;90.03;100076.62;1650019;85;21805;-81
2021/05/02 00:45:16;;;;;;;21.60;12.18;;;;;;;12.62;90.01;100078.05;1650456;87;21737;-81
2021/05/02 00:48:52;;;;;;;21.75;10.95;;;;;;;12.57;90.42;100070.41;1650142;85;21785;-81
2021/05/02 00:52:01;;;;;;;19.62;12.07;;;;;;;12.51;91.21;100072.04;1650298;85;21354;-81
2021/05/02 00:55:16;;;;;;;20.48;11.73;;;;;;;12.47;92.01;100069.36;1650556;87;21184;-81
2021/05/02 00:58:29;;;;;;;26.05;10.82;;;;;;;12.44;92.16;100068.36;1650252;85;21333;-81
2021/05/02 01:01:35;;;;;;;18.23;10.93;;;;;;;12.41;92.47;100074.75;1649932;87;21753;-81
2021/05/02 01:04:41;;;;;;;15.45;10.53;;;;;;;12.38;92.90;100070.52;1652520;87;21342;-81
2021/05/02 01:07:52;;;;;;;20.25;10.30;;;;;;;12.41;92.93;100074.75;1650136;85;21361;-81
2021/05/02 01:10:58;;;;;;;21.20;9.83;;;;;;;12.45;92.53;100073.32;1635560;87;21310;-81
2021/05/02 01:14:06;;;;;;;18.73;11.48;;;;;;;12.47;92.52;100073.47;1635890;87;21876;-81
2021/05/02 01:17:13;;;;;;;14.28;10.85;;;;;;;12.45;92.80;100067.31;1650104;85;21737;-81
2021/05/02 01:20:20;;;;;;;19.67;11.97;;;;;;;12.44;93.29;100062.88;1650157;87;21223;-81
2021/05/02 01:23:35;;;;;;;18.17;11.43;;;;;;;12.40;93.94;100057.45;1652433;85;21230;-81
2021/05/02 01:26:40;;;;;;;16.57;9.35;;;;;;;12.39;94.64;100059.87;1649660;87;21765;-81
2021/05/02 01:29:46;;;;;;;22.77;10.32;;;;;;;12.38;95.37;100055.43;1650280;87;21330;-81
2021/05/02 01:32:45;;;;;;;17.07;9.58;;;;;;;12.37;96.00;100053.70;1651149;85;21760;-81
2021/05/02 01:35:50;;;;;;;15.63;10.68;;;;;;;12.38;96.46;100051.31;1655529;86;21183;-81
2021/05/02 01:38:57;;;;;;;18.90;11.70;;;;;;;12.36;96.87;100042.94;1655543;85;21340;-81
2021/05/02 01:42:02;;;;;;;18.90;11.25;;;;;;;12.35;97.40;100041.25;1651983;85;21309;-81
2021/05/02 01:45:07;;;;;;;18.73;10.93;;;;;;;12.36;97.99;100043.78;1655542;86;21737;-81
2021/05/02 01:48:15;;;;;;;13.13;9.10;;;;;;;12.37;98.36;100034.51;1634989;86;21336;-81
2021/05/02 01:51:20;;;;;;;20.08;11.05;;;;;;;12.37;98.52;100041.36;1655699;86;21231;-81
2021/05/02 01:54:26;;;;;;;15.98;10.68;;;;;;;12.35;98.63;100042.09;1655809;86;21757;-81
2021/05/02 01:57:38;;;;;;;22.17;10.25;;;;;;;12.35;98.91;100037.13;1654784;85;21325;-81
2021/05/02 02:00:52;;;;;;;;;;;;;;;12.33;99.15;100035.97;1654608;86;21214;-81
2021/05/02 02:03:58;;;;;;;19.90;10.63;;;;;;;12.33;99.57;100033.72;1655700;85;20200;-81
2021/05/02 02:07:04;;;;;;;12.63;9.05;;;;;;;12.29;99.91;100037.39;1655548;85;21613;-81
2021/05/02 02:10:13;;;;;;;13.03;9.68;;;;;;;12.29;100.00;100042.88;1631224;86;21828;-81
2021/05/02 02:13:20;;;;;;;14.43;10.15;;;;;;;12.26;100.00;100049.59;1635783;86;21318;-81
2021/05/02 02:16:25;;;;;;;21.52;9.65;;;;;;;12.24;100.00;100037.13;1655726;86;21220;-81
2021/05/02 02:19:32;;;;;;;16.55;9.90;;;;;;;12.21;100.00;100038.35;1654250;86;21725;-81
2021/05/02 02:22:36;;;;;;;18.15;9.30;;;;;;;12.15;100.00;100032.28;1655561;85;21345;-81
2021/05/02 02:25:45;;;;;;;17.67;9.15;;;;;;;12.11;100.00;100035.60;1655737;86;21294;-81
2021/05/02 02:28:51;;;;;;;20.37;11.03;;;;;;;12.08;100.00;100026.38;1654469;85;21836;-81
2021/05/02 02:31:58;;;;;;;11.78;9.35;;;;;;;12.09;100.00;100028.95;1655723;85;21379;-80
2021/05/02 02:35:06;;;;;;;21.97;10.58;;;;;;;12.13;100.00;100027.50;1649188;85;21333;-80
2021/05/02 02:38:11;;;;;;;19.60;10.05;;;;;;;12.23;100.00;100034.03;1649654;85;21219;-80
2021/05/02 02:41:23;;;;;;;12.95;8.78;;;;;;;12.35;100.00;100044.84;1650005;87;21306;-81
2021/05/02 02:44:28;;;;;;;14.55;9.30;;;;;;;12.54;100.00;100035.12;1650449;87;21302;-81
2021/05/02 02:47:47;;;;;;;14.05;9.33;;;;;;;12.74;100.00;100030.66;1649902;85;21860;-81
2021/05/02 02:50:54;;;;;;;12.98;9.00;;;;;;;12.95;100.00;100018.83;1650281;87;21295;-81
2021/05/02 02:54:03;;;;;;;19.57;9.90;;;;;;;13.17;100.00;100021.50;1650187;85;21357;-81
2021/05/02 02:57:09;;;;;;;19.37;8.38;;;;;;;13.38;100.00;100025.61;1650034;85;21324;-81
2021/05/02 03:00:17;;;;;;;15.83;8.83;;;;;;;13.57;100.00;100020.44;1650051;87;21194;-81
2021/05/02 03:03:26;;;;;;;10.68;7.95;;;;;;;13.76;99.47;100018.31;1650202;85;21329;-81
2021/05/02 03:06:34;;;;;;;16.23;8.50;;;;;;;13.99;98.34;100018.84;1650393;87;21286;-81
2021/05/02 03:09:40;;;;;;;14.98;8.50;;;;;;;14.11;96.63;100010.83;1650253;87;21341;-81
2021/05/02 03:12:46;;;;;;;17.17;7.95;;;;;;;14.09;95.06;100006.08;1650059;85;21187;-81
2021/05/02 03:15:52;;;;;;;13.32;8.23;;;;;;;14.02;94.48;100003.31;1648864;86;21195;-81
2021/05/02 03:19:08;;;;;;;14.05;8.60;;;;;;;13.98;94.41;100000.66;1650157;85;21195;-81
2021/05/02 03:22:27;;;;;;;13.93;9.15;;;;;;;13.99;94.53;99994.09;1650099;85;21314;-81
2021/05/02 03:25:36;;;;;;;12.35;8.23;;;;;;;14.04;94.73;100007.22;1650107;87;21761;-81
2021/05/02 03:29:03;;;;;;;15.58;9.15;;;;;;;14.09;94.65;100009.35;1649641;85;21354;-81
2021/05/02 03:32:09;;;;;;;15.68;8.30;;;;;;;14.10;94.40;100004.17;1650196;85;21298;-81
2021/05/02 03:35:14;;;;;;;18.05;7.97;;;;;;;14.11;94.44;100012.73;1651582;86;21341;-81
2021/05/02 03:38:45;;;;;;;10.25;7.58;;;;;;;14.15;94.54;100015.39;1650060;85;21259;-81
2021/05/02 03:41:53;;;;;;;15.48;9.13;;;;;;;14.26;94.66;100012.06;1650252;85;21298;-81
2021/05/02 03:44:58;;;;;;;15.78;8.53;;;;;;;14.37;94.62;100010.06;1649914;87;21378;-81
2021/05/02 03:48:04;;;;;;;12.82;8.30;;;;;;;14.40;94.37;100002.78;1650239;85;21326;-81
2021/05/02 03:51:10;;;;;;;12.45;7.92;;;;;;;14.42;94.17;100007.53;1650118;87;21295;-81
2021/05/02 03:54:16;;;;;;;14.25;7.85;;;;;;;14.44;93.97;100013.66;1650278;87;21305;-81
2021/05/02 03:57:23;;;;;;;13.28;8.28;;;;;;;14.44;93.90;100016.95;1650193;85;21336;-81
2021/05/02 04:00:28;;;;;;;9.80;7.53;;;;;;;14.45;93.87;100007.66;1650258;87;21298;-81
2021/05/02 04:03:33;;;;;;;12.13;7.92;;;;;;;14.45;93.90;100003.53;1650207;85;21783;-81
2021/05/02 04:06:39;;;;;;;15.45;8.55;;;;;;;14.45;93.80;100004.38;1650169;87;21168;-81
2021/05/02 04:09:46;;;;;;;16.62;8.38;;;;;;;14.47;93.55;100016.54;1650086;87;21838;-81
2021/05/02 04:12:50;;;;;;;16.27;9.08;;;;;;;14.48;93.42;100014.13;1650258;85;21801;-81
2021/05/02 04:15:56;;;;;;;19.02;7.95;;;;;;;14.51;93.53;100020.08;1650238;87;21187;-81
2021/05/02 04:19:03;;;;;;;13.83;7.42;;;;;;;14.52;93.52;100032.77;1650101;85;21215;-81
2021/05/02 04:22:10;;;;;;;13.40;7.97;;;;;;;14.55;93.60;100031.52;1650292;85;21836;-81
2021/05/02 04:25:19;;;;;;;16.97;7.78;;;;;;;14.61;93.64;100039.47;1650190;87;21834;-81
2021/05/02 04:28:24;;;;;;;15.03;8.15;;;;;;;14.70;93.48;100036.83;1650016;85;21357;-81
2021/05/02 04:31:29;;;;;;;14.80;8.30;;;;;;;14.80;93.06;100053.78;1650147;87;21303;-81
2021/05/02 04:34:35;;;;;;;14.68;7.42;;;;;;;14.86;92.52;100052.09;1649996;87;21294;-81
2021/05/02 04:37:41;;;;;;;12.07;7.30;;;;;;;14.91;92.36;100050.39;1650276;85;21856;-81
2021/05/02 04:40:45;;;;;;;14.90;8.25;;;;;;;14.96;92.21;100047.00;1650203;87;21183;-81
2021/05/02 04:43:50;;;;;;;13.48;7.95;;;;;;;15.02;92.07;100053.91;1650011;85;21365;-81
2021/05/02 04:46:56;;;;;;;12.50;8.38;;;;;;;15.13;91.95;100062.59;1650082;85;21303;-81
2021/05/02 04:50:06;;;;;;;14.65;7.97;;;;;;;15.26;91.78;100051.58;1650173;87;21220;-81
2021/05/02 04:53:12;;;;;;;13.60;7.83;;;;;;;15.42;91.35;100042.85;1650215;85;21856;-81
2021/05/02 04:56:17;;;;;;;10.50;7.62;;;;;;;15.54;90.55;100045.28;1650083;87;21305;-81
2021/05/02 04:59:23;;;;;;;15.63;7.78;;;;;;;15.66;90.19;100044.10;1649607;87;21222;-81
2021/05/02 05:02:28;;;;;;;14.93;8.00;;;;;;;15.86;89.67;100039.09;1649973;85;21326;-81
2021/05/02 05:05:34;;;;;;;10.82;7.55;;;;;;;16.10;89.37;100042.48;1650201;87;21195;-81
2021/05/02 05:08:39;;;;;;;10.28;6.35;;;;;;;16.36;88.41;100042.34;1650145;85;21223;-81
2021/05/02 05:11:46;;;;;;;11.78;6.83;;;;;;;16.55;86.47;100047.44;1650228;87;21294;-81
2021/05/02 05:14:52;;;;;;;13.20;7.35;;;;;;;16.69;84.84;100045.98;1649966;87;21258;-81
2021/05/02 05:17:58;;;;;;;13.72;7.42;;;;;;;16.90;84.47;100042.89;1649982;85;21871;-81
2021/05/02 05:21:05;;;;;;;10.68;7.10;;;;;;;17.17;83.65;100031.61;1649847;87;21222;-81
2021/05/02 05:24:10;;;;;;;10.75;6.95;;;;;;;17.34;81.95;100034.11;1650177;85;22276;-81
2021/05/02 05:27:15;;;;;;;13.35;7.20;;;;;;;17.36;80.41;100033.34;1650179;85;21317;-82
2021/05/02 05:30:23;;;;;;;9.28;5.60;;;;;;;17.38;79.79;100027.91;1649452;87;21373;-82
2021/05/02 05:33:29;;;;;;;10.48;5.95;;;;;;;17.41;79.41;100025.74;1649841;85;21246;-81
2021/05/02 05:36:39;;;;;;;15.88;6.90;;;;;;;17.40;78.77;100019.38;1648405;87;21191;-81
2021/05/02 05:39:43;;;;;;;12.55;5.87;;;;;;;17.36;78.90;100013.98;1650050;87;21314;-81
2021/05/02 05:42:49;;;;;;;17.02;6.45;;;;;;;17.44;78.78;100013.70;1650188;85;21207;-81
2021/05/02 05:45:54;;;;;;;10.28;6.03;;;;;;;17.51;78.43;100010.34;1649927;87;21321;-81
2021/05/02 05:49:00;;;;;;;8.03;5.10;;;;;;;17.58;78.15;100015.25;1649882;85;21226;-81
2021/05/02 05:52:07;;;;;;;13.18;5.85;;;;;;;17.60;77.51;100011.73;1650096;85;21293;-81
2021/05/02 05:55:14;;;;;;;9.05;5.60;;;;;;;17.65;76.77;100018.50;1649970;87;21828;-81
2021/05/02 05:58:20;;;;;;;17.57;5.28;;;;;;;17.75;76.53;100010.55;1650164;85;21373;-81
2021/05/02 06:01:27;;;;;;;10.15;5.25;;;;;;;17.86;76.72;100005.06;1649001;87;21314;-81
2021/05/02 06:04:33;;;;;;;10.40;5.60;;;;;;;18.03;76.30;100008.61;1650135;87;21183;-81
2021/05/02 06:07:38;;;;;;;12.78;6.35;;;;;;;18.23;76.35;100015.26;1650089;85;21252;-82
2021/05/02 06:10:43;;;;;;;7.20;5.10;;;;;;;18.40;75.68;100010.77;1650067;87;21236;-82
2021/05/02 06:13:49;;;;;;;9.43;5.28;;;;;;;18.59;75.39;100012.39;1649570;85;21258;-82
2021/05/02 06:16:57;;;;;;;12.53;5.80;;;;;;;18.83;75.41;100011.11;1649579;85;21733;-82
2021/05/02 06:20:03;;;;;;;10.38;5.78;;;;;;;19.10;75.10;100003.17;1650162;87;21184;-82
2021/05/02 06:23:10;;;;;;;9.30;4.90;;;;;;;19.35;74.31;99996.03;1649651;85;21227;-82
2021/05/02 06:26:18;;;;;;;12.18;5.72;;;;;;;19.57;73.62;99989.30;1649609;87;21738;-82
2021/05/02 06:29:24;;;;;;;9.90;5.92;;;;;;;19.68;72.55;99991.81;1650096;87;21334;-82
2021/05/02 06:32:29;;;;;;;8.90;4.80;;;;;;;19.81;72.42;99995.17;1649952;85;21301;-82
2021/05/02 06:35:36;;;;;;;8.70;4.72;;;;;;;19.86;69.87;99991.66;1650313;87;21185;-82
2021/05/02 06:38:42;;;;;;;10.88;4.50;;;;;;;19.87;69.98;99990.57;1649024;85;21232;-82
2021/05/02 06:41:48;;;;;;;11.45;5.00;;;;;;;19.87;68.58;99994.73;1649819;87;21329;-82
2021/05/02 06:44:56;;;;;;;13.60;6.50;;;;;;;19.78;68.55;99990.09;1650055;87;21341;-82
2021/05/02 06:48:03;;;;;;;9.20;4.30;;;;;;;19.76;68.70;99990.03;1614630;87;21309;-82
2021/05/02 06:51:09;;;;;;;7.12;4.97;;;;;;;19.84;69.48;99996.05;1649921;87;21337;-82
2021/05/02 06:54:14;;;;;;;8.13;4.12;;;;;;;19.97;68.29;100000.49;1649979;85;21321;-82
2021/05/02 06:57:20;;;;;;;10.88;4.78;;;;;;;20.01;68.90;99998.92;1650066;85;21337;-82
2021/05/02 07:00:27;;;;;;;9.68;4.90;;;;;;;20.05;68.84;100002.05;1650284;87;21298;-82
2021/05/02 07:03:32;;;;;;;10.18;4.92;;;;;;;20.06;68.65;99997.63;1649809;85;21199;-82
2021/05/02 07:06:38;;;;;;;12.10;5.45;;;;;;;20.10;68.56;99993.28;1650162;87;21290;-82
2021/05/02 07:09:44;;;;;;;14.47;5.55;;;;;;;20.17;69.28;99982.85;1650059;87;21305;-82
2021/05/02 07:12:49;;;;;;;10.15;5.08;;;;;;;20.25;68.58;99989.96;1649520;85;21337;-82
2021/05/02 07:15:55;;;;;;;10.90;4.90;;;;;;;20.29;68.64;99987.54;1650156;87;21187;-82
2021/05/02 07:19:02;;;;;;;15.00;4.87;;;;;;;20.35;67.69;99981.82;1650114;85;21251;-82
2021/05/02 07:22:08;;;;;;;13.28;6.25;;;;;;;20.38;68.42;99976.33;1650087;85;21825;-82
2021/05/02 07:25:16;;;;;;;13.32;5.62;;;;;;;20.41;67.50;99974.42;1632437;87;22221;-82
2021/05/02 07:28:23;;;;;;;8.53;5.08;;;;;;;20.39;68.33;99973.84;1634769;87;21223;-82
2021/05/02 07:31:29;;;;;;;11.55;5.33;;;;;;;20.46;68.44;99972.28;1649972;87;21832;-82
2021/05/02 07:34:35;;;;;;;10.48;4.70;;;;;;;20.60;68.74;99962.03;1650145;87;21347;-82
2021/05/02 07:37:40;;;;;;;15.48;4.75;;;;;;;20.81;68.04;99959.62;1649687;85;21231;-82
2021/05/02 07:40:45;;;;;;;10.80;4.85;;;;;;;20.98;67.17;99949.88;1650898;87;21346;-82
2021/05/02 07:43:52;;;;;;;10.50;5.17;;;;;;;21.15;66.19;99956.28;1651088;85;21366;-82
2021/05/02 07:46:57;;;;;;;11.70;4.45;;;;;;;21.23;65.12;99945.28;1650972;85;21367;-82
2021/05/02 07:50:04;;;;;;;8.98;4.55;;;;;;;21.21;65.35;99954.41;1651151;87;21193;-82
2021/05/02 07:53:09;;;;;;;11.80;4.22;;;;;;;21.18;64.64;99952.45;1650538;85;21366;-82
2021/05/02 07:56:14;;;;;;;9.88;4.40;;;;;;;21.22;64.59;99946.35;1651234;87;21236;-82
2021/05/02 07:59:21;;;;;;;10.13;4.55;;;;;;;21.25;64.86;99948.08;1650384;87;21243;-82
2021/05/02 08:02:26;;;;;;;11.35;3.95;;;;;;;21.22;64.69;99933.31;1650230;85;21327;-82
2021/05/02 08:05:32;;;;;;;9.95;4.58;;;;;;;21.21;63.84;99936.33;1650980;87;21758;-82
2021/05/02 08:08:38;;;;;;;6.03;3.90;;;;;;;21.19;64.70;99942.16;1651102;85;21334;-82
2021/05/02 08:11:44;;;;;;;7.90;3.62;;;;;;;21.23;65.18;99936.94;1651128;87;21747;-82
2021/05/02 08:14:50;;;;;;;9.28;4.42;;;;;;;21.30;64.39;99937.58;1651098;87;21758;-82
2021/05/02 08:18:01;;;;;;;6.60;3.90;;;;;;;21.36;64.49;99932.41;1651012;85;21208;-82
2021/05/02 08:21:09;;;;;;;8.10;4.17;;;;;;;21.43;63.54;99934.47;1651270;87;21304;-82
2021/05/02 08:24:14;;;;;;;7.08;3.83;;;;;;;21.51;62.32;99935.98;1651037;85;21938;-82
2021/05/02 08:27:20;;;;;;;10.20;4.65;;;;;;;21.51;62.24;99939.60;1651131;85;21359;-82
2021/05/02 08:30:29;;;;;;;7.58;3.55;;;;;;;21.49;62.07;99930.66;1650958;87;21225;-82
2021/05/02 08:33:37;;;;;;;12.07;4.03;;;;;;;21.51;62.41;99928.47;1650890;85;21319;-82
2021/05/02 08:36:43;;;;;;;10.63;4.45;;;;;;;21.51;62.30;99921.52;1650979;87;21225;-82
2021/05/02 08:39:49;;;;;;;10.45;4.10;;;;;;;21.46;62.21;99917.28;1647967;87;21798;-82
2021/05/02 08:42:54;;;;;;;7.72;4.08;;;;;;;21.49;61.92;99902.83;1634781;86;21334;-82
2021/05/02 08:46:01;;;;;;;6.72;3.77;;;;;;;21.45;61.15;99897.48;1635147;88;21306;-82
2021/05/02 08:49:07;;;;;;;12.45;4.30;;;;;;;21.38;60.33;99906.58;1634515;86;21311;-82
2021/05/02 08:52:11;;;;;;;8.35;3.62;;;;;;;21.36;62.31;99900.42;1635175;86;21313;-82
2021/05/02 08:55:19;;;;;;;7.97;3.90;;;;;;;21.36;61.31;99896.24;1634763;88;21224;-82
2021/05/02 08:58:26;;;;;;;6.67;4.10;;;;;;;21.37;62.06;99895.17;1634849;86;21809;-82
2021/05/02 09:01:36;;;;;;;7.92;3.55;;;;;;;21.46;62.09;99891.40;1634512;88;21327;-82
2021/05/02 09:04:43;;;;;;;6.30;3.45;;;;;;;21.53;59.54;99891.48;1635157;88;21347;-82
2021/05/02 09:07:49;;;;;;;9.28;3.37;;;;;;;21.57;59.71;99898.22;1606338;88;21334;-82
2021/05/02 09:10:58;;;;;;;8.30;2.92;;;;;;;21.57;59.72;99894.04;1635150;88;21290;-82
2021/05/02 09:14:04;;;;;;;8.53;3.60;;;;;;;21.64;59.77;99896.61;1634916;86;21327;-82
2021/05/02 09:17:14;;;;;;;7.35;3.25;;;;;;;21.72;59.79;99897.56;1634976;86;21291;-82
2021/05/02 09:20:20;;;;;;;6.53;2.67;;;;;;;21.77;59.12;99899.56;1635096;88;21327;-82
2021/05/02 09:23:26;;;;;;;8.43;3.27;;;;;;;21.75;57.85;99898.45;1635113;86;21879;-82
2021/05/02 09:26:37;;;;;;;5.83;3.10;;;;;;;21.82;58.34;99891.27;1635141;88;21172;-82
2021/05/02 09:29:43;;;;;;;5.35;2.60;;;;;;;21.82;58.35;99890.72;1635104;88;21303;-82
2021/05/02 09:32:50;;;;;;;7.10;3.05;;;;;;;21.76;57.99;99890.93;1635152;86;21884;-82
2021/05/02 09:35:58;;;;;;;5.08;3.10;;;;;;;21.71;58.50;99885.30;1634675;88;21196;-82
2021/05/02 09:39:03;;;;;;;9.08;3.83;;;;;;;21.73;58.91;99876.97;1634683;86;21224;-82
2021/05/02 09:42:32;;;;;;;7.03;3.20;;;;;;;21.77;58.73;99875.91;1634755;85;21338;-82
2021/05/02 09:45:37;;;;;;;13.20;4.08;;;;;;;21.87;59.33;99883.81;1634630;88;21196;-82
2021/05/02 09:48:42;;;;;;;6.90;3.72;;;;;;;22.03;59.60;99882.06;1635000;86;21343;-82
2021/05/02 09:51:57;;;;;;;7.83;3.58;;;;;;;22.16;57.61;99882.20;1634903;88;21838;-82
2021/05/02 09:55:02;;;;;;;10.15;3.22;;;;;;;22.23;58.15;99872.27;1635106;88;21192;-82
2021/05/02 09:58:20;;;;;;;7.87;3.62;;;;;;;22.26;57.20;99868.96;1621780;87;21338;-82
2021/05/02 10:01:26;;;;;;;6.62;3.05;;;;;;;22.29;57.66;99867.86;1635244;88;21346;-82
2021/05/02 10:04:51;;;;;;;7.08;3.67;;;;;;;22.36;57.83;99881.03;1634781;88;21354;-82
2021/05/02 10:07:58;;;;;;;5.00;3.08;;;;;;;22.37;56.09;99878.53;1634697;86;21248;-82
2021/05/02 10:11:15;;;;;;;11.50;4.03;;;;;;;22.39;55.55;99871.29;1633808;88;21765;-82
2021/05/02 10:14:19;;;;;;;9.50;4.20;;;;;;;22.43;55.23;99864.08;1634970;88;21738;-82
2021/05/02 10:17:26;;;;;;;8.13;4.80;;;;;;;22.44;55.96;99862.45;1635081;86;21927;-82
2021/05/02 10:20:31;;;;;;;11.20;4.65;;;;;;;22.48;56.16;99865.52;1634377;88;21757;-82
2021/05/02 10:23:36;;;;;;;10.45;5.45;;;;;;;22.48;56.39;99864.13;1634852;86;21323;-82
2021/05/02 10:26:41;;;;;;;5.85;3.05;;;;;;;22.46;56.67;99856.59;1634994;88;21840;-82
2021/05/02 10:29:47;;;;;;;5.90;3.00;;;;;;;22.57;57.39;99852.78;1634327;88;21302;-83
2021/05/02 10:32:59;;;;;;;9.15;4.50;;;;;;;22.58;57.18;99845.25;1635162;86;21228;-82
2021/05/02 10:36:11;;;;;;;8.40;5.10;;;;;;;22.51;55.98;99840.47;1622696;88;21215;-82
2021/05/02 10:39:20;;;;;;;10.98;5.17;;;;;;;22.45;57.34;99840.99;1634984;88;21358;-83
2021/05/02 10:42:51;;;;;;;5.90;2.72;;;;;;;22.41;57.23;99837.05;1634860;85;21347;-82
2021/05/02 10:45:59;;;;;;;5.65;3.45;;;;;;;22.34;56.57;99823.88;1635098;88;21232;-83
2021/05/02 10:49:05;;;;;;;7.90;2.92;;;;;;;22.27;57.34;99819.09;1634781;86;21330;-83
2021/05/02 10:52:43;;;;;;;5.70;2.77;;;;;;;22.29;57.72;99815.48;1633210;86;21315;-83
2021/05/02 10:56:11;;;;;;;5.67;3.08;;;;;;;22.27;57.15;99806.01;1634791;88;21845;-83
2021/05/02 10:59:18;;;;;;;11.83;2.90;;;;;;;22.30;57.13;99808.80;1634758;88;21189;-83
2021/05/02 11:02:48;;;;;;;6.03;2.67;;;;;;;22.39;57.36;99813.61;1634617;86;21853;-83
2021/05/02 11:05:56;;;;;;;5.67;2.90;;;;;;;22.52;57.16;99810.10;1634109;88;21374;-82
2021/05/02 11:09:04;;;;;;;11.03;2.50;;;;;;;22.68;56.21;99804.38;1633355;86;21227;-83
2021/05/02 11:12:09;;;;;;;8.38;2.70;;;;;;;22.82;54.13;99802.49;1622475;86;21290;-83
2021/05/02 11:15:37;;;;;;;6.35;2.80;;;;;;;22.90;53.70;99802.86;1634491;88;21839;-83
2021/05/02 11:18:59;;;;;;;7.80;2.98;;;;;;;22.96;53.11;99792.60;1635015;86;21338;-83
2021/05/02 11:22:10;;;;;;;9.65;2.45;;;;;;;22.99;53.35;99792.04;1634995;86;21857;-83
2021/05/02 11:25:21;;;;;;;4.90;2.40;;;;;;;23.00;52.45;99790.09;1633861;87;21208;-83
2021/05/02 11:28:57;;;;;;;5.75;2.62;;;;;;;22.99;52.35;99792.04;1622994;87;21837;-83
2021/05/02 11:31:55;;;;;;;9.65;2.80;;;;;;;23.02;52.44;99787.33;1635345;86;21169;-83
2021/05/02 11:35:13;;;;;;;7.08;3.00;;;;;;;23.03;52.87;99786.77;1635085;88;21814;-82
2021/05/02 11:38:22;;;;;;;9.28;2.40;;;;;;;23.01;52.82;99784.26;1622070;87;21652;-83
2021/05/02 11:41:28;;;;;;;6.90;2.77;;;;;;;22.91;52.72;99773.02;1634850;88;21172;-83
2021/05/02 11:44:35;;;;;;;6.90;2.52;;;;;;;22.78;52.28;99772.94;1634433;85;21334;-83
2021/05/02 11:47:41;;;;;;;4.87;2.70;;;;;;;22.68;52.50;99772.89;1635017;86;21339;-83
2021/05/02 11:50:47;;;;;;;8.95;3.17;;;;;;;22.58;53.78;99770.84;1635158;88;21216;-83
2021/05/02 11:54:05;;;;;;;15.63;3.50;;;;;;;22.56;53.39;99768.89;1635079;86;21338;-83
2021/05/02 11:57:12;;;;;;;8.40;3.22;;;;;;;22.53;53.85;99763.84;1635431;86;21567;-82
2021/05/02 12:00:20;;;;;;;9.03;4.50;;;;;;;22.53;54.68;99764.40;1635148;88;21363;-82
2021/05/02 12:03:45;;;;;;;18.25;3.65;;;;;;;22.52;55.13;99763.56;1635284;86;21880;-83
2021/05/02 12:06:50;;;;;;;7.62;3.12;;;;;;;22.55;55.74;99761.64;1634004;88;21856;-83
2021/05/02 12:09:56;;;;;;;9.10;3.47;;;;;;;22.60;54.66;99767.25;1635242;88;21850;-82
2021/05/02 12:13:01;;;;;;;6.87;3.22;;;;;;;22.66;54.28;99770.91;1635268;86;21905;-82
2021/05/02 12:16:15;;;;;;;8.70;3.27;;;;;;;22.64;54.31;99771.18;1635204;88;21346;-82
2021/05/02 12:19:21;;;;;;;11.05;3.62;;;;;;;22.68;54.28;99763.97;1635242;88;21299;-82
2021/05/02 12:22:26;;;;;;;8.88;3.02;;;;;;;22.68;52.03;99762.57;1635120;86;21177;-82
2021/05/02 12:25:32;;;;;;;7.22;3.65;;;;;;;22.74;52.32;99766.78;1635192;88;21338;-82
2021/05/02 12:28:31;;;;;;;9.45;3.15;;;;;;;22.78;52.81;99762.34;1635224;86;21326;-83
2021/05/02 12:31:39;;;;;;;11.78;3.47;;;;;;;22.78;52.29;99765.97;1622352;88;21347;-82
2021/05/02 12:34:48;;;;;;;8.25;2.98;;;;;;;22.73;52.27;99766.50;1634790;88;21296;-82
2021/05/02 12:37:55;;;;;;;5.67;2.70;;;;;;;22.65;52.04;99762.27;1634989;86;21311;-82
2021/05/02 12:41:00;;;;;;;10.85;3.35;;;;;;;22.59;51.15;99762.79;1634709;88;21299;-83
2021/05/02 12:44:22;;;;;;;13.70;3.58;;;;;;;22.50;51.01;99769.97;1638326;86;21322;-82
2021/05/02 12:47:30;;;;;;;9.88;3.33;;;;;;;22.39;51.70;99764.02;1619824;85;21805;-82
2021/05/02 12:50:41;;;;;;;9.88;2.87;;;;;;;22.27;51.87;99761.99;1650288;87;21333;-82
2021/05/02 12:53:52;;;;;;;12.15;3.25;;;;;;;22.16;52.77;99750.78;1649069;85;21314;-81
2021/05/02 12:57:09;;;;;;;;;;;;;;;22.08;53.19;99741.48;1651425;85;21203;-82
2021/05/02 13:00:25;;;;;;;12.78;3.25;;;;;;;22.04;54.26;99735.31;1649758;87;20436;-82
2021/05/02 13:03:47;;;;;;;9.58;3.40;;;;;;;22.02;54.02;99727.76;1648563;85;21231;-82
2021/05/02 13:06:53;;;;;;;6.10;2.80;;;;;;;22.03;54.15;99719.72;1649321;87;21855;-82
2021/05/02 13:09:57;;;;;;;12.85;3.72;;;;;;;21.97;54.37;99703.50;1649387;87;21301;-82
2021/05/02 13:13:09;;;;;;;6.78;2.77;;;;;;;21.98;53.73;99701.58;1649491;85;21332;-82
2021/05/02 13:16:14;;;;;;;7.60;3.17;;;;;;;21.97;53.78;99697.92;1649476;87;21222;-82
2021/05/02 13:19:48;;;;;;;6.62;3.15;;;;;;;22.01;53.62;99689.33;1650164;87;21908;-82
2021/05/02 13:22:51;;;;;;;8.55;4.50;;;;;;;22.03;53.82;99682.96;1650140;85;21302;-82
2021/05/02 13:25:57;;;;;;;12.50;3.90;;;;;;;22.04;53.14;99675.44;1649894;87;21736;-83
2021/05/02 13:29:18;;;;;;;9.88;2.83;;;;;;;21.98;52.52;99675.13;1649555;85;21504;-83
2021/05/02 13:32:25;;;;;;;7.53;3.12;;;;;;;21.88;50.98;99664.75;1649710;85;21228;-82
2021/05/02 13:35:32;;;;;;;7.33;2.90;;;;;;;21.78;51.14;99654.34;1650002;87;21187;-82
2021/05/02 13:38:32;;;;;;;4.10;2.35;;;;;;;21.66;51.76;99659.27;1649941;85;21184;-82
2021/05/02 13:41:39;;;;;;;6.20;2.52;;;;;;;21.56;51.69;99652.23;1649742;87;21227;-82
2021/05/02 13:44:45;;;;;;;4.95;3.27;;;;;;;21.49;51.38;99653.81;1649847;87;21187;-82
2021/05/02 13:47:52;;;;;;;4.37;3.00;;;;;;;21.44;51.30;99642.64;1649611;85;21336;-82
2021/05/02 13:50:58;;;;;;;7.60;3.12;;;;;;;21.41;51.37;99641.25;1649881;87;21179;-82
2021/05/02 13:54:04;;;;;;;8.43;3.20;;;;;;;21.39;52.05;99642.59;1649962;85;21204;-82
2021/05/02 13:57:11;;;;;;;7.95;3.27;;;;;;;21.37;52.09;99638.70;1649355;85;21880;-82
2021/05/02 14:00:18;;;;;;;7.10;2.77;;;;;;;21.35;52.31;99634.48;1650224;87;21824;-81
2021/05/02 14:03:25;;;;;;;6.35;2.90;;;;;;;21.33;52.34;99640.88;1650158;85;21409;-82
2021/05/02 14:06:29;;;;;;;9.60;2.83;;;;;;;21.30;52.09;99634.41;1650161;87;21309;-82
2021/05/02 14:09:36;;;;;;;12.82;3.30;;;;;;;21.23;51.71;99626.84;1649884;87;21326;-83
2021/05/02 14:12:41;;;;;;;5.15;2.75;;;;;;;21.13;51.46;99633.98;1650122;85;21337;-82
2021/05/02 14:15:47;;;;;;;7.58;3.15;;;;;;;21.03;51.96;99634.40;1648658;87;21744;-82
2021/05/02 14:18:53;;;;;;;5.85;3.35;;;;;;;20.95;52.10;99632.94;1649019;85;21329;-82
2021/05/02 14:21:58;;;;;;;9.13;3.52;;;;;;;20.90;53.16;99623.16;1650127;85;21764;-82
2021/05/02 14:25:05;;;;;;;8.65;3.52;;;;;;;20.84;53.65;99615.84;1649960;87;21207;-82
2021/05/02 14:28:12;;;;;;;8.45;3.47;;;;;;;20.77;53.71;99623.55;1649510;85;21206;-82
2021/05/02 14:31:16;;;;;;;5.97;3.30;;;;;;;20.68;54.21;99612.89;1650203;87;21175;-82
2021/05/02 14:34:22;;;;;;;9.18;3.60;;;;;;;20.63;54.20;99611.44;1650009;87;21182;-82